Skip to main content

NOAA/GLERL Met Station at Muskegon, MI

Previous 5 days (top of hour only)
See also Previous 3 Hours (2 minute increments)
Jump down to Data
Switch to [English][Metric]
Zoom: Click and drag, Pan: shift-click and drag, Unzoom: double-click, Unzoom All






Note: Speed = mean wind during 2-minute period at top of hour,
Gust = max wind during 2-minute period at top of hour,
Peak = max wind during entire hour.
• See also 5-day windrose plot


NOAA/GLERL Met Station at Muskegon, MI

Previous 5 days (top of hour only)
See also Previous 3 Hours (2 minute increments)
Jump up to Graphs
Switch to [English][Metric]
                  Wind  Wind  Wind   Air   Dew   Rel     Sta   PAR
                   Spd   Gst   Dir  Temp    Pt   Hum    Pres uE/m2/
YYYY-MM-DD   EDT   kts   kts   deg     F     F     %   in Hg   sec
2020-04-09 00:00 -99.0 -99.0   -99   0.0   0.0   0.0    0.00     0
2020-04-08 16:00   4.3   5.4   243  40.3  39.9  98.5   29.11   251
2020-04-08 15:00   6.6   7.4   234  40.5  39.1  94.8   29.13   734
2020-04-08 14:00   6.0   6.6   212  43.7  41.3  91.2   29.12  1617
2020-04-08 13:00   3.3   3.7   310  40.8  40.7  99.5   29.15   963
2020-04-08 12:00   4.3   4.7   290  41.0  40.9  99.8   29.17   612
2020-04-08 11:00   2.3   2.7   239  42.3  42.2  99.8   29.16  1169
2020-04-08 10:00   2.1   2.9   311  42.3  42.2  99.8   29.15   900
2020-04-08 09:00   8.2   8.9   346  41.9  41.8  99.8   29.14   345
2020-04-08 08:00   4.3   4.7   327  40.8  40.8  99.8   29.11    91
2020-04-08 07:00   3.9   4.5   330  41.4  41.3  99.8   29.09     3
2020-04-08 06:00   2.9   4.1    74  47.1  47.1  99.8   29.07     2
2020-04-08 05:00   2.7   5.4    52  43.7  43.6  99.8   29.06     2
2020-04-08 04:00   7.2   8.0   359  42.1  42.0  99.8   29.07     2
2020-04-08 03:00  12.1  13.4   351  42.4  42.4  99.8   29.07     2
2020-04-08 02:00  10.5  11.5   356  45.3  45.3  99.9   29.06     2
2020-04-08 01:00   8.7   9.5   345  42.4  42.4  99.8   29.04     2
2020-04-08 00:00  12.4  14.0   354  42.6  42.6  99.8   29.01     2
2020-04-07 23:00  14.4  17.3   351  43.0  42.9  99.8   29.00     2
2020-04-07 22:00  16.7  18.7   355  46.4  46.3  99.7   28.99     2
2020-04-07 21:00  16.3  18.7   344  48.4  48.1  98.9   28.97     2
2020-04-07 20:00  19.8  21.8   250  52.5  49.8  90.4   28.93    89
2020-04-07 19:00  19.1  19.4   185  53.8  52.0  93.5   28.93    20
2020-04-07 18:00  13.8  14.4   178  48.2  47.2  96.2   28.97    24
2020-04-07 17:00  16.3  17.3   183  48.6  47.7  96.9   28.98   756
2020-04-07 16:00  13.0  15.6   187  46.6  45.6  96.2   29.01  1461
2020-04-07 15:00  14.6  15.7   189  48.0  46.6  94.9   29.05  1157
2020-04-07 14:00  11.5  12.1   189  48.7  48.5  99.0   29.07  1059
2020-04-07 13:00  12.2  12.8   194  47.3  47.2  99.5   29.10   878
2020-04-07 12:00   7.6   8.0   203  46.6  46.4  99.3   29.16   238
2020-04-07 11:00   8.6   8.9   209  47.7  47.0  97.4   29.16   423
2020-04-07 10:00   8.9   9.3   181  48.9  46.0  89.4   29.17   246
2020-04-07 09:00   4.7   5.1   177  50.7  46.1  83.9   29.18   147
2020-04-07 08:00   5.8   7.2   135  50.4  43.0  75.5   29.18    43
2020-04-07 07:00   7.2   9.1   125  50.2  42.9  75.9   29.17     2
2020-04-07 06:00   7.4   9.9   126  49.8  43.2  77.8   29.19     2
2020-04-07 05:00   9.1  11.7   112  48.9  44.3  83.8   29.20     2
2020-04-07 04:00   8.7  10.5   113  48.4  44.4  85.8   29.21     2
2020-04-07 03:00  10.1  10.9   109  47.8  44.5  88.1   29.26     2
2020-04-07 02:00   8.7  10.3   110  47.7  44.4  88.4   29.29     2
2020-04-07 01:00   6.4   7.8    90  47.8  44.0  86.3   29.31     2
2020-04-07 00:00   7.4   7.8    96  48.4  42.6  80.3   29.33     2
2020-04-06 23:00   5.4   6.2   106  50.0  40.3  68.9   29.34     2
2020-04-06 22:00   5.8   6.2   108  51.3  39.7  64.4   29.34     2
2020-04-06 21:00   6.0   6.8   108  51.1  36.7  57.4   29.33     2
2020-04-06 20:00   4.5   5.1   105  51.1  36.9  58.0   29.34     7
2020-04-06 18:00   2.7   3.1   323  48.2  37.4  65.9   29.36   227
2020-04-06 17:00   4.5   4.9   297  48.2  40.2  73.5   29.39  1272
2020-04-06 16:00   2.7   3.7   269  47.7  38.6  70.6   29.40  1776
2020-04-06 15:00   5.1   5.8   227  47.3  39.3  73.6   29.44  1836
2020-04-06 14:00   7.8   8.7   205  46.4  39.5  76.7   29.46  1373
2020-04-06 13:00  10.3  10.9   198  45.9  40.0  79.9   29.48  1183
2020-04-06 12:00  11.7  13.4   187  45.9  39.1  77.0   29.49  1597
2020-04-06 11:00  10.3  11.5   196  44.4  36.3  72.9   29.52  1579
2020-04-06 10:00   8.6  10.1   187  43.7  34.0  68.3   29.51  1398
2020-04-06 09:00   3.7   4.7   127  40.6  30.3  66.3   29.52  1153
2020-04-06 08:00   7.2   7.8   118  37.0  29.5  74.0   29.51   489
2020-04-06 07:00   7.0   8.0   112  36.1  31.6  83.5   29.50     3
2020-04-06 06:00   8.7   9.1   104  35.1  31.9  88.1   29.50     2
2020-04-06 05:00   8.6   9.1   107  35.2  31.3  85.4   29.50     2
2020-04-06 04:00   8.9   9.3   110  36.1  31.1  81.8   29.51     2
2020-04-06 03:00   8.4   9.1   105  36.0  30.2  79.4   29.52     2
2020-04-06 02:00   7.4   8.2    91  36.0  27.9  72.2   29.53     2
2020-04-06 01:00   8.2   8.9    86  36.9  27.3  67.9   29.54     2
2020-04-06 00:00   7.8   8.6    85  37.2  27.0  66.1   29.54     2
2020-04-05 23:00   5.2   6.0    75  37.8  27.7  66.6   29.53     2
2020-04-05 22:00   2.5   2.9    40  38.3  24.1  56.3   29.53     2
2020-04-05 21:00   3.1   4.5    19  38.5  25.0  57.9   29.52     2
2020-04-05 20:00   9.9  10.7   353  39.9  33.5  77.5   29.53   182
2020-04-05 19:00  14.2  15.7   343  39.7  33.5  78.1   29.55  1106
2020-04-05 18:00  12.2  13.4   341  40.3  32.9  74.6   29.54  1500
2020-04-05 17:00  15.6  15.9   344  39.7  32.1  73.9   29.55  1669
2020-04-05 16:00  15.4  16.5   340  40.1  33.2  76.1   29.56  1728
2020-04-05 15:00  16.3  16.9   345  38.8  31.6  74.9   29.57  1785
2020-04-05 14:00  13.4  13.8   337  39.0  31.4  73.8   29.58  1821
2020-04-05 13:00   9.9  10.7   322  39.2  30.0  69.2   29.59  1789
2020-04-05 12:00   3.7   4.9   255  37.9  28.1  67.4   29.59  1740
2020-04-05 11:00   5.4   6.8   112  38.3  23.1  54.0   29.61  1661
2020-04-05 10:00   7.4   9.5    71  35.8  24.0  61.9   29.61  1503
2020-04-05 09:00   6.0   7.6    59  31.8  26.2  79.5   29.60   761
2020-04-05 08:00   8.4  10.3    44  30.6  26.2  83.5   29.58   118
2020-04-05 07:00   6.2   7.6    27  30.9  27.3  86.4   29.57     2
2020-04-05 06:00   7.2   9.1    23  30.7  28.1  89.9   29.55     2
2020-04-05 05:00   5.4   6.8    27  30.6  28.6  92.5   29.54     2
2020-04-05 04:00   6.8   8.0    28  31.1  29.2  92.4   29.52     2
2020-04-05 03:00   5.6   7.0    31  32.0  29.8  91.3   29.51     2
2020-04-05 02:00   3.1   3.7    58  32.9  30.5  90.6   29.51     2
2020-04-05 01:00   4.9   6.2    50  33.8  30.9  89.1   29.51     2
2020-04-05 00:00   8.4  11.1    76  35.6  31.5  84.9   29.51     2
2020-04-04 23:00   6.2   7.2    57  36.0  31.3  83.0   29.51     2
2020-04-04 22:00   5.8   7.8    36  36.5  32.5  85.3   29.51     2
2020-04-04 21:00   8.2   9.7     7  38.3  33.5  82.5   29.50     2
2020-04-04 20:00  15.6  18.1   353  38.5  35.0  87.1   29.47   194
2020-04-04 19:00  15.2  16.7   349  39.2  35.6  86.8   29.46   236
2020-04-04 18:00  16.7  19.1   346  39.2  35.1  85.2   29.45   639
2020-04-04 17:00  19.2  21.4   344  39.6  35.5  85.3   29.45   910
2020-04-04 16:00  22.4  23.7   346  38.7  35.3  87.6   29.46   939
2020-04-04 15:00  22.2  24.5   346  38.8  35.9  88.9   29.45  1194
2020-04-04 14:00  22.6  25.9   350  38.7  35.3  87.5   29.46   913
2020-04-04 13:00  22.9  25.9   348  38.5  36.1  90.9   29.45   746
2020-04-04 12:00  19.2  22.4   349  38.7  37.2  94.4   29.45   525
2020-04-04 11:00  21.6  24.5   349  38.5  37.4  95.7   29.44   302
2020-04-04 10:00  18.1  20.8   349  38.5  37.4  96.0   29.42   162
2020-04-04 09:00  18.9  22.0   347  39.2  38.4  96.8   29.41    87
2020-04-04 08:00  14.4  15.6   344  39.4  38.5  96.6   29.40    15
2020-04-04 07:00  12.6  15.6   343  39.7  38.6  95.5   29.37     2
2020-04-04 06:00  15.0  16.5   339  41.5  38.0  87.2   29.36     2
2020-04-04 05:00   6.6   6.8   279  45.0  36.7  72.6   29.35     2
2020-04-04 04:00   7.6   8.6   107  51.1  34.1  51.8   29.33     2
2020-04-04 03:00   6.4   8.6   121  52.5  33.2  47.4   29.34     2
2020-04-04 02:00   7.4   8.7   114  52.0  34.9  51.8   29.35     2
2020-04-04 01:00  10.3  11.1   108  50.9  33.0  49.9   29.35     2
2020-04-04 00:00  11.5  13.6   102  49.8  34.0  54.2   29.36     2
2020-04-03 23:00   7.2   7.6   109  47.8  34.8  60.2   29.36     2
2020-04-03 22:00   5.1   5.4   127  50.4  31.2  47.5   29.38     2
2020-04-03 21:00   3.9   4.3   143  50.5  31.3  47.2   29.38     2
2020-04-03 20:00   1.4   1.7   130  50.7  35.0  54.5   29.38    69